Negril, Jamaica
Current Conditions -  °F | °C
As of 7:00 PM on Wednesday 28 Jan 2015 (Local Time) from MKJS Reporting Station
Broken Clouds Broken Clouds  
Wind Chill: 77°   Ceiling: 3400
Heat Index: 79°   Visibility: 6mi
Dew Point: 66°   Wind: 8mph
Humidity: 69%   Direction: 20°NNE
Pressure: 29.97"   Gusts: NA
Location:  18.27°N, 78.35°W
Report Text: MKJS 290000Z 02007KT 9999 FEW020 BKN034 25/19 Q1015
Loading
Personal Weather Stations






























Interactive Weather Map New forecast layout! Learn more

10-Day Weather Forecast

Advertisements
Track Severe Weather on mobile